Time;durP1;ratioP1;P1;durP2;ratioP2;P2;SDS_P1;SDS_P2;PMS_P1;PMS_P2;Temp;Humidity;BMP_temperature;BMP_pressure;BME280_temperature;BME280_humidity;BME280_pressure;Samples;Min_cycle;Max_cycle;Signal;HPM_P1;HPM_P2
2023/04/09 00:01:09;;;;;;;30.10;18.80;;;;;;;;;;5116464;28;20480;-72
2023/04/09 00:03:37;;;;;;;32.87;20.07;;;;;;;;;;5116518;28;20815;-72
2023/04/09 00:06:04;;;;;;;49.57;21.03;;;;;;;;;;5116361;28;20449;-72
2023/04/09 00:08:31;;;;;;;33.53;20.23;;;;;;;;;;5115897;28;20456;-72
2023/04/09 00:10:59;;;;;;;37.30;21.50;;;;;;;;;;5116244;27;20445;-73
2023/04/09 00:13:26;;;;;;;35.17;22.10;;;;;;;;;;5115909;27;20488;-72
2023/04/09 00:15:55;;;;;;;35.20;22.30;;;;;;;;;;5116305;28;20450;-72
2023/04/09 00:18:22;;;;;;;33.57;19.87;;;;;;;;;;5116108;28;20453;-72
2023/04/09 00:20:49;;;;;;;36.00;22.53;;;;;;;;;;5116033;28;20449;-72
2023/04/09 00:23:16;;;;;;;35.97;21.40;;;;;;;;;;5115883;28;20519;-72
2023/04/09 00:25:44;;;;;;;38.57;21.77;;;;;;;;;;5115617;28;20460;-72
2023/04/09 00:28:11;;;;;;;38.83;23.43;;;;;;;;;;5116336;28;20844;-72
2023/04/09 00:30:38;;;;;;;39.80;21.80;;;;;;;;;;5115950;28;20446;-72
2023/04/09 00:33:06;;;;;;;41.53;23.77;;;;;;;;;;5115751;28;20488;-72
2023/04/09 00:35:33;;;;;;;38.00;24.47;;;;;;;;;;5115820;28;20442;-72
2023/04/09 00:38:01;;;;;;;34.50;21.00;;;;;;;;;;5115901;28;20456;-73
2023/04/09 00:40:28;;;;;;;39.90;23.00;;;;;;;;;;5115390;28;20453;-73
2023/04/09 00:42:55;;;;;;;37.67;22.80;;;;;;;;;;5115622;28;20989;-72
2023/04/09 00:45:23;;;;;;;42.00;24.13;;;;;;;;;;5115249;28;20575;-72
2023/04/09 00:47:51;;;;;;;40.63;21.60;;;;;;;;;;5115730;28;20461;-72
2023/04/09 00:50:20;;;;;;;42.70;23.40;;;;;;;;;;5115556;28;20472;-72
2023/04/09 00:52:47;;;;;;;42.70;21.40;;;;;;;;;;5115539;28;20466;-72
2023/04/09 00:55:14;;;;;;;35.50;20.77;;;;;;;;;;5115269;28;20994;-72
2023/04/09 00:57:41;;;;;;;34.40;20.30;;;;;;;;;;5115566;28;20446;-73
2023/04/09 01:00:10;;;;;;;38.60;21.17;;;;;;;;;;5114916;28;20449;-72
2023/04/09 01:02:37;;;;;;;33.87;21.17;;;;;;;;;;5115235;28;20570;-72
2023/04/09 01:05:05;;;;;;;40.70;22.37;;;;;;;;;;5115245;28;20926;-72
2023/04/09 01:07:40;;;;;;;44.40;24.60;;;;;;;;;;5115237;28;20541;-72
2023/04/09 01:10:13;;;;;;;37.33;19.90;;;;;;;;;;5115251;28;20453;-72
2023/04/09 01:12:48;;;;;;;37.00;21.73;;;;;;;;;;5114991;28;20470;-72
2023/04/09 01:15:18;;;;;;;48.57;22.57;;;;;;;;;;5114836;28;21041;-72
2023/04/09 01:17:49;;;;;;;38.03;21.73;;;;;;;;;;5115216;28;20450;-72
2023/04/09 01:20:19;;;;;;;37.53;20.23;;;;;;;;;;5115103;28;20446;-72
2023/04/09 01:23:01;;;;;;;39.70;23.20;;;;;;;;;;5114950;28;20469;-72
2023/04/09 01:25:34;;;;;;;35.07;21.13;;;;;;;;;;5114922;27;20450;-71
2023/04/09 01:28:17;;;;;;;41.40;22.63;;;;;;;;;;5115002;28;20453;-72
2023/04/09 01:30:46;;;;;;;33.83;20.40;;;;;;;;;;5114774;28;20449;-72
2023/04/09 01:33:15;;;;;;;37.17;20.20;;;;;;;;;;5114750;28;20453;-73
2023/04/09 01:35:43;;;;;;;40.67;24.17;;;;;;;;;;5113518;27;20857;-73
2023/04/09 01:38:11;;;;;;;34.47;20.47;;;;;;;;;;5114617;28;20456;-73
2023/04/09 01:40:38;;;;;;;34.50;21.40;;;;;;;;;;5114239;27;20449;-73
2023/04/09 01:43:07;;;;;;;37.90;20.97;;;;;;;;;;5114415;28;20473;-73
2023/04/09 01:45:36;;;;;;;39.80;21.90;;;;;;;;;;5114071;28;20461;-73
2023/04/09 01:48:04;;;;;;;38.57;21.90;;;;;;;;;;5114395;28;20457;-73
2023/04/09 01:50:32;;;;;;;37.83;20.40;;;;;;;;;;5114488;28;20449;-73
2023/04/09 01:53:00;;;;;;;36.27;20.50;;;;;;;;;;5114466;28;20500;-73
2023/04/09 01:55:27;;;;;;;38.30;21.50;;;;;;;;;;5113769;28;20498;-73
2023/04/09 01:57:55;;;;;;;35.47;22.47;;;;;;;;;;5114078;28;20539;-72
2023/04/09 02:00:22;;;;;;;36.77;20.97;;;;;;;;;;5114108;28;20819;-73
2023/04/09 02:02:53;;;;;;;41.57;22.20;;;;;;;;;;5113993;28;20469;-72
2023/04/09 02:05:22;;;;;;;39.70;21.80;;;;;;;;;;5113995;28;20548;-72
2023/04/09 02:07:53;;;;;;;34.67;20.77;;;;;;;;;;5114215;28;20872;-72
2023/04/09 02:10:21;;;;;;;38.47;20.17;;;;;;;;;;5113582;28;20455;-72
2023/04/09 02:12:49;;;;;;;32.30;20.80;;;;;;;;;;5113783;27;20469;-73
2023/04/09 02:15:17;;;;;;;38.53;20.07;;;;;;;;;;5113756;28;20485;-72
2023/04/09 02:17:44;;;;;;;36.63;20.50;;;;;;;;;;5113927;28;20461;-72
2023/04/09 02:20:16;;;;;;;40.50;20.20;;;;;;;;;;5113698;28;20506;-73
2023/04/09 02:22:43;;;;;;;41.33;20.63;;;;;;;;;;5113836;28;20838;-73
2023/04/09 02:25:10;;;;;;;33.90;19.13;;;;;;;;;;5113605;28;20446;-73
2023/04/09 02:27:38;;;;;;;33.13;19.60;;;;;;;;;;5114031;28;20825;-72
2023/04/09 02:30:05;;;;;;;32.40;19.47;;;;;;;;;;5113685;28;20457;-72
2023/04/09 02:32:32;;;;;;;28.57;17.70;;;;;;;;;;5113726;28;20465;-72
2023/04/09 02:34:59;;;;;;;33.10;20.10;;;;;;;;;;5113452;28;20854;-72
2023/04/09 02:37:28;;;;;;;30.10;18.17;;;;;;;;;;5113725;28;20453;-73
2023/04/09 02:39:55;;;;;;;30.07;19.37;;;;;;;;;;5113776;28;20939;-73
2023/04/09 02:42:22;;;;;;;37.00;20.77;;;;;;;;;;5113523;28;20472;-73
2023/04/09 02:44:49;;;;;;;30.93;20.03;;;;;;;;;;5113383;28;20468;-73
2023/04/09 02:47:16;;;;;;;36.37;20.00;;;;;;;;;;5113253;28;20454;-73
2023/04/09 02:49:44;;;;;;;30.43;17.83;;;;;;;;;;5113624;28;20438;-73
2023/04/09 02:52:11;;;;;;;31.77;20.80;;;;;;;;;;5113465;28;20472;-73
2023/04/09 02:54:39;;;;;;;35.47;19.43;;;;;;;;;;5113292;28;21039;-72
2023/04/09 02:57:06;;;;;;;31.67;17.00;;;;;;;;;;5113575;28;20466;-73
2023/04/09 02:59:34;;;;;;;37.00;19.93;;;;;;;;;;5113810;28;20562;-73
2023/04/09 03:02:02;;;;;;;35.53;19.00;;;;;;;;;;5114207;28;20473;-73
2023/04/09 03:04:29;;;;;;;34.27;18.53;;;;;;;;;;5113975;28;20446;-73
2023/04/09 03:06:56;;;;;;;29.53;17.70;;;;;;;;;;5113893;28;20790;-73
2023/04/09 03:09:23;;;;;;;29.63;17.33;;;;;;;;;;5113449;28;20445;-72
2023/04/09 03:11:51;;;;;;;31.03;18.90;;;;;;;;;;5113767;28;21005;-72
2023/04/09 03:14:18;;;;;;;29.50;18.77;;;;;;;;;;5113388;28;20551;-72
2023/04/09 03:16:46;;;;;;;38.43;18.27;;;;;;;;;;5113343;28;20452;-72
2023/04/09 03:19:13;;;;;;;30.00;17.53;;;;;;;;;;5113286;28;20472;-72
2023/04/09 03:21:40;;;;;;;32.20;19.50;;;;;;;;;;5112973;28;20466;-72
2023/04/09 03:24:07;;;;;;;26.50;16.93;;;;;;;;;;5113164;28;20449;-72
2023/04/09 03:26:35;;;;;;;31.17;18.57;;;;;;;;;;5113159;28;20461;-72
2023/04/09 03:29:04;;;;;;;31.07;16.63;;;;;;;;;;5113536;28;20835;-76
2023/04/09 03:31:31;;;;;;;31.87;17.00;;;;;;;;;;5113455;28;20828;-76
2023/04/09 03:33:59;;;;;;;24.37;15.20;;;;;;;;;;5113487;28;20465;-76
2023/04/09 03:36:26;;;;;;;30.27;17.90;;;;;;;;;;5113483;28;20447;-76
2023/04/09 03:38:53;;;;;;;28.70;17.50;;;;;;;;;;5112987;28;20481;-76
2023/04/09 03:41:21;;;;;;;31.83;19.30;;;;;;;;;;5112865;28;20481;-76
2023/04/09 03:43:48;;;;;;;35.00;18.57;;;;;;;;;;5112695;28;20465;-76
2023/04/09 03:46:16;;;;;;;32.50;18.57;;;;;;;;;;5113406;28;20438;-76
2023/04/09 03:48:44;;;;;;;26.67;17.17;;;;;;;;;;5113347;28;20838;-76
2023/04/09 03:51:12;;;;;;;28.67;16.60;;;;;;;;;;5113303;28;20477;-76
2023/04/09 03:53:39;;;;;;;29.83;18.63;;;;;;;;;;5112722;28;20522;-76
2023/04/09 03:56:07;;;;;;;35.07;19.07;;;;;;;;;;5113248;28;20910;-76
2023/04/09 03:58:34;;;;;;;30.17;18.70;;;;;;;;;;5112728;28;20455;-76
2023/04/09 04:01:02;;;;;;;34.30;19.87;;;;;;;;;;5116912;27;20892;-76
2023/04/09 04:03:30;;;;;;;39.43;22.00;;;;;;;;;;5116419;28;20445;-72
2023/04/09 04:06:01;;;;;;;33.07;18.80;;;;;;;;;;5116496;28;20457;-72
2023/04/09 04:08:28;;;;;;;37.00;22.27;;;;;;;;;;5116539;28;20934;-72
2023/04/09 04:10:56;;;;;;;42.97;21.23;;;;;;;;;;5116406;28;20446;-72
2023/04/09 04:13:23;;;;;;;41.40;22.37;;;;;;;;;;5116490;28;20934;-72
2023/04/09 04:15:50;;;;;;;42.13;25.03;;;;;;;;;;5116293;28;20490;-72
2023/04/09 04:18:17;;;;;;;35.20;20.43;;;;;;;;;;5116185;28;20457;-72
2023/04/09 04:20:45;;;;;;;37.90;20.27;;;;;;;;;;5116440;28;20927;-72
2023/04/09 04:23:12;;;;;;;37.57;20.57;;;;;;;;;;5116185;28;20467;-72
2023/04/09 04:25:41;;;;;;;36.10;22.13;;;;;;;;;;5115950;28;20521;-72
2023/04/09 04:28:08;;;;;;;39.40;24.57;;;;;;;;;;5116048;28;20499;-73
2023/04/09 04:30:36;;;;;;;34.83;22.13;;;;;;;;;;5116145;28;20464;-73
2023/04/09 04:33:03;;;;;;;36.57;20.20;;;;;;;;;;5116018;28;21001;-72
2023/04/09 04:35:30;;;;;;;33.17;18.93;;;;;;;;;;5116120;28;20481;-72
2023/04/09 04:37:58;;;;;;;36.33;20.10;;;;;;;;;;5116039;28;20813;-72
2023/04/09 04:40:25;;;;;;;34.67;19.27;;;;;;;;;;5115874;28;20454;-72
2023/04/09 04:42:52;;;;;;;28.43;17.57;;;;;;;;;;5115844;28;20466;-73
2023/04/09 04:45:20;;;;;;;36.80;20.77;;;;;;;;;;5115449;28;20454;-72
2023/04/09 04:47:47;;;;;;;41.47;21.93;;;;;;;;;;5115853;28;20472;-72
2023/04/09 04:50:14;;;;;;;28.43;17.83;;;;;;;;;;5115392;28;20449;-72
2023/04/09 04:52:41;;;;;;;33.87;19.67;;;;;;;;;;5115064;28;20473;-73
2023/04/09 04:55:10;;;;;;;38.47;19.33;;;;;;;;;;5114762;28;20484;-73
2023/04/09 04:57:37;;;;;;;35.10;21.17;;;;;;;;;;5115309;28;20446;-73
2023/04/09 05:00:05;;;;;;;30.10;19.27;;;;;;;;;;5115771;28;20641;-72
2023/04/09 05:02:32;;;;;;;38.93;21.80;;;;;;;;;;5115390;27;20470;-72
2023/04/09 05:04:59;;;;;;;37.70;21.57;;;;;;;;;;5115592;28;20442;-71
2023/04/09 05:07:26;;;;;;;40.30;23.20;;;;;;;;;;5115229;28;20449;-72
2023/04/09 05:09:54;;;;;;;36.20;22.20;;;;;;;;;;5115090;28;20461;-72
2023/04/09 05:12:22;;;;;;;40.90;23.20;;;;;;;;;;5115142;28;20505;-72
2023/04/09 05:14:49;;;;;;;40.70;21.80;;;;;;;;;;5115291;28;20457;-72
2023/04/09 05:17:16;;;;;;;36.80;22.30;;;;;;;;;;5115045;28;20457;-72
2023/04/09 05:19:43;;;;;;;32.13;20.23;;;;;;;;;;5114275;28;20481;-72
2023/04/09 05:22:10;;;;;;;41.90;20.47;;;;;;;;;;5115052;28;20857;-72
2023/04/09 05:24:38;;;;;;;35.63;19.80;;;;;;;;;;5114683;28;20446;-76
2023/04/09 05:27:05;;;;;;;36.90;22.90;;;;;;;;;;5115102;28;20818;-72
2023/04/09 05:29:33;;;;;;;36.77;18.37;;;;;;;;;;5114982;28;20465;-72
2023/04/09 05:32:01;;;;;;;29.63;19.53;;;;;;;;;;5114985;28;20461;-72
2023/04/09 05:34:28;;;;;;;35.77;20.77;;;;;;;;;;5114553;28;20507;-72
2023/04/09 05:36:55;;;;;;;33.40;20.20;;;;;;;;;;5114673;28;20493;-72
2023/04/09 05:39:22;;;;;;;34.47;21.27;;;;;;;;;;5114629;28;20961;-72
2023/04/09 05:41:51;;;;;;;28.43;19.87;;;;;;;;;;5114646;28;20474;-72
2023/04/09 05:44:18;;;;;;;36.80;22.13;;;;;;;;;;5114215;28;20473;-72
2023/04/09 05:46:46;;;;;;;32.03;20.30;;;;;;;;;;5114612;27;20814;-72
2023/04/09 05:49:13;;;;;;;38.00;22.07;;;;;;;;;;5114138;28;20454;-73
2023/04/09 05:51:42;;;;;;;32.37;21.80;;;;;;;;;;5114319;28;20466;-72
2023/04/09 05:54:09;;;;;;;30.93;21.00;;;;;;;;;;5113870;27;20454;-72
2023/04/09 05:56:36;;;;;;;33.57;21.33;;;;;;;;;;5114640;27;20507;-72
2023/04/09 05:59:03;;;;;;;30.37;20.57;;;;;;;;;;5114543;28;21018;-72
2023/04/09 06:01:30;;;;;;;30.37;21.83;;;;;;;;;;5114167;28;20477;-73
2023/04/09 06:03:59;;;;;;;30.97;19.90;;;;;;;;;;5114044;27;20938;-73
2023/04/09 06:06:26;;;;;;;29.10;17.57;;;;;;;;;;5114175;28;20454;-72
2023/04/09 06:08:53;;;;;;;30.67;19.43;;;;;;;;;;5114315;28;20495;-72
2023/04/09 06:11:21;;;;;;;30.37;19.67;;;;;;;;;;5113989;28;20473;-72
2023/04/09 06:13:49;;;;;;;29.90;19.10;;;;;;;;;;5114011;28;20458;-72
2023/04/09 06:16:16;;;;;;;29.27;18.83;;;;;;;;;;5114007;28;20713;-72
2023/04/09 06:18:45;;;;;;;29.30;20.80;;;;;;;;;;5114044;28;20801;-72
2023/04/09 06:21:15;;;;;;;30.00;20.00;;;;;;;;;;5113740;28;20474;-72
2023/04/09 06:23:43;;;;;;;28.27;19.60;;;;;;;;;;5113650;28;20439;-72
2023/04/09 06:26:10;;;;;;;29.17;19.30;;;;;;;;;;5114089;27;20446;-72
2023/04/09 06:28:37;;;;;;;41.30;26.37;;;;;;;;;;5113926;28;20453;-72
2023/04/09 06:31:04;;;;;;;30.43;20.87;;;;;;;;;;5113903;28;20441;-72
2023/04/09 06:33:31;;;;;;;31.87;19.87;;;;;;;;;;5113617;28;20461;-72
2023/04/09 06:35:59;;;;;;;27.70;19.80;;;;;;;;;;5113833;28;20489;-72
2023/04/09 06:38:28;;;;;;;32.40;19.27;;;;;;;;;;5113889;28;20462;-72
2023/04/09 06:40:56;;;;;;;30.90;21.80;;;;;;;;;;5113690;28;20450;-72
2023/04/09 06:43:23;;;;;;;33.50;20.60;;;;;;;;;;5113508;28;20510;-73
2023/04/09 06:45:50;;;;;;;41.83;25.33;;;;;;;;;;5113541;28;20468;-73
2023/04/09 06:48:18;;;;;;;30.23;22.10;;;;;;;;;;5113529;28;20488;-73
2023/04/09 06:50:45;;;;;;;28.40;18.77;;;;;;;;;;5113423;28;20446;-73
2023/04/09 06:53:12;;;;;;;30.53;19.03;;;;;;;;;;5113527;28;20446;-73
2023/04/09 06:55:42;;;;;;;29.57;22.00;;;;;;;;;;5113273;28;20564;-73
2023/04/09 06:58:09;;;;;;;28.20;18.10;;;;;;;;;;5113463;28;20461;-73
2023/04/09 07:00:36;;;;;;;34.90;22.47;;;;;;;;;;5113549;28;20961;-73
2023/04/09 07:03:04;;;;;;;31.80;19.80;;;;;;;;;;5113379;28;20485;-74
2023/04/09 07:05:32;;;;;;;30.90;20.60;;;;;;;;;;5113170;28;20541;-73
2023/04/09 07:07:59;;;;;;;28.13;20.37;;;;;;;;;;5113679;28;20466;-73
2023/04/09 07:10:26;;;;;;;28.07;21.07;;;;;;;;;;5113349;28;20445;-73
2023/04/09 07:12:54;;;;;;;28.87;19.77;;;;;;;;;;5113079;28;20485;-73
2023/04/09 07:15:21;;;;;;;31.43;19.33;;;;;;;;;;5112473;28;20446;-73
2023/04/09 07:17:49;;;;;;;31.60;20.00;;;;;;;;;;5113453;28;20441;-73
2023/04/09 07:20:16;;;;;;;29.13;20.00;;;;;;;;;;5113168;28;20507;-73
2023/04/09 07:22:43;;;;;;;28.20;20.10;;;;;;;;;;5112360;28;20470;-73
2023/04/09 07:25:10;;;;;;;24.93;17.87;;;;;;;;;;5113100;28;20446;-73
2023/04/09 07:27:37;;;;;;;26.80;18.30;;;;;;;;;;5113405;28;20794;-73
2023/04/09 07:30:07;;;;;;;29.17;18.13;;;;;;;;;;5113536;28;20446;-73
2023/04/09 07:32:34;;;;;;;24.20;17.73;;;;;;;;;;5113727;28;20465;-74
2023/04/09 07:35:01;;;;;;;26.50;18.40;;;;;;;;;;5116503;28;20453;-73
2023/04/09 07:37:29;;;;;;;31.13;19.70;;;;;;;;;;5118010;28;20489;-74
2023/04/09 07:39:56;;;;;;;31.73;20.03;;;;;;;;;;5118415;28;20817;-73
2023/04/09 07:42:23;;;;;;;42.00;22.50;;;;;;;;;;5117736;28;20476;-74
2023/04/09 07:44:51;;;;;;;28.67;18.07;;;;;;;;;;5117919;28;20457;-74
2023/04/09 07:47:19;;;;;;;26.50;18.30;;;;;;;;;;5117957;28;20456;-74
2023/04/09 07:49:46;;;;;;;37.17;23.93;;;;;;;;;;5118220;28;20451;-74
2023/04/09 07:52:14;;;;;;;35.20;22.00;;;;;;;;;;5118197;27;20508;-74
2023/04/09 07:54:41;;;;;;;29.80;20.93;;;;;;;;;;5118641;28;20950;-74
2023/04/09 07:57:09;;;;;;;30.73;20.03;;;;;;;;;;5118446;28;20537;-74
2023/04/09 07:59:37;;;;;;;28.20;18.87;;;;;;;;;;5118749;28;20468;-75
2023/04/09 08:02:04;;;;;;;29.83;19.90;;;;;;;;;;5117849;28;20473;-73
2023/04/09 08:04:32;;;;;;;25.23;18.17;;;;;;;;;;5116592;28;20906;-74
2023/04/09 08:07:00;;;;;;;29.33;19.30;;;;;;;;;;5116849;27;20787;-73
2023/04/09 08:09:27;;;;;;;39.87;23.73;;;;;;;;;;5116456;28;20462;-74
2023/04/09 08:11:54;;;;;;;31.63;20.60;;;;;;;;;;5116900;28;20841;-73
2023/04/09 08:14:21;;;;;;;30.87;19.77;;;;;;;;;;5116470;28;20540;-73
2023/04/09 08:16:49;;;;;;;30.37;20.30;;;;;;;;;;5116365;28;20489;-73
2023/04/09 08:19:17;;;;;;;34.53;20.93;;;;;;;;;;5115593;28;20450;-74
2023/04/09 08:21:47;;;;;;;39.53;22.63;;;;;;;;;;5115562;28;20568;-73
2023/04/09 08:24:15;;;;;;;35.17;21.47;;;;;;;;;;5115986;27;20449;-73
2023/04/09 08:26:42;;;;;;;34.57;22.43;;;;;;;;;;5116455;27;20456;-73
2023/04/09 08:29:09;;;;;;;34.20;22.93;;;;;;;;;;5116291;28;20453;-74
2023/04/09 08:31:37;;;;;;;31.80;20.33;;;;;;;;;;5116097;28;20470;-74
2023/04/09 08:34:04;;;;;;;39.00;25.07;;;;;;;;;;5115960;28;20453;-74
2023/04/09 08:36:33;;;;;;;41.63;25.73;;;;;;;;;;5115881;28;20842;-74
2023/04/09 08:39:02;;;;;;;33.00;20.87;;;;;;;;;;5115864;28;20449;-74
2023/04/09 08:41:29;;;;;;;27.77;19.90;;;;;;;;;;5115746;28;20477;-74
2023/04/09 08:43:58;;;;;;;26.53;18.53;;;;;;;;;;5115605;28;20481;-75
2023/04/09 08:46:25;;;;;;;28.07;18.33;;;;;;;;;;5115392;28;20492;-74
2023/04/09 08:48:53;;;;;;;25.97;17.90;;;;;;;;;;5115891;28;20537;-75
2023/04/09 08:51:21;;;;;;;28.53;18.13;;;;;;;;;;5115543;28;20530;-74
2023/04/09 08:53:51;;;;;;;29.10;18.30;;;;;;;;;;5115661;28;20829;-74
2023/04/09 08:56:21;;;;;;;29.60;17.03;;;;;;;;;;5115904;27;20516;-73
2023/04/09 08:58:48;;;;;;;28.47;19.17;;;;;;;;;;5115665;28;20453;-73
2023/04/09 09:01:22;;;;;;;27.40;17.07;;;;;;;;;;5115180;28;20474;-73
2023/04/09 09:03:56;;;;;;;25.97;16.87;;;;;;;;;;5115472;28;20449;-74
2023/04/09 09:06:24;;;;;;;35.00;23.43;;;;;;;;;;5115207;28;20964;-73
2023/04/09 09:09:04;;;;;;;29.47;19.80;;;;;;;;;;5115444;28;20939;-74
2023/04/09 09:11:33;;;;;;;37.13;25.43;;;;;;;;;;5115030;28;20473;-74
2023/04/09 09:14:01;;;;;;;49.03;36.83;;;;;;;;;;5115618;27;20453;-73
2023/04/09 09:16:28;;;;;;;31.33;22.80;;;;;;;;;;5115366;28;20853;-73
2023/04/09 09:18:56;;;;;;;26.00;18.13;;;;;;;;;;5115557;28;20446;-74
2023/04/09 09:21:23;;;;;;;27.70;18.37;;;;;;;;;;5114955;28;20534;-75
2023/04/09 09:23:51;;;;;;;31.33;19.50;;;;;;;;;;5115219;28;20442;-75
2023/04/09 09:26:19;;;;;;;26.63;16.30;;;;;;;;;;5115063;28;20448;-75
2023/04/09 09:28:48;;;;;;;26.30;18.33;;;;;;;;;;5115379;28;20497;-76
2023/04/09 09:31:16;;;;;;;21.90;15.20;;;;;;;;;;5115289;28;20466;-75
2023/04/09 09:33:43;;;;;;;26.80;16.97;;;;;;;;;;5114850;28;20460;-75
2023/04/09 09:36:10;;;;;;;28.17;15.90;;;;;;;;;;5115639;28;20453;-75
2023/04/09 09:38:52;;;;;;;26.57;17.30;;;;;;;;;;5115366;28;20453;-75
2023/04/09 09:41:20;;;;;;;28.90;17.50;;;;;;;;;;5113078;28;20473;-75
2023/04/09 09:43:48;;;;;;;26.37;17.20;;;;;;;;;;5114789;28;20467;-75
2023/04/09 09:46:16;;;;;;;24.70;16.00;;;;;;;;;;5115103;28;20953;-76
2023/04/09 09:48:45;;;;;;;23.93;16.10;;;;;;;;;;5115247;28;20449;-76
2023/04/09 09:51:13;;;;;;;27.33;15.63;;;;;;;;;;5114901;28;20465;-75
2023/04/09 09:53:40;;;;;;;27.90;18.53;;;;;;;;;;5114889;28;20891;-76
2023/04/09 09:56:12;;;;;;;29.10;17.20;;;;;;;;;;5113965;28;20891;-72
2023/04/09 09:58:42;;;;;;;27.17;17.03;;;;;;;;;;5114061;28;20450;-72
2023/04/09 10:01:13;;;;;;;25.50;16.67;;;;;;;;;;5114202;28;20469;-72
2023/04/09 10:03:41;;;;;;;27.83;16.67;;;;;;;;;;5114080;28;20450;-72
2023/04/09 10:06:09;;;;;;;30.07;17.50;;;;;;;;;;5114114;28;20461;-72
2023/04/09 10:08:39;;;;;;;21.03;15.37;;;;;;;;;;5114225;28;20446;-72
2023/04/09 10:11:07;;;;;;;23.83;16.07;;;;;;;;;;5114151;28;20496;-72
2023/04/09 10:13:35;;;;;;;25.00;17.30;;;;;;;;;;5114040;28;20460;-72
2023/04/09 10:16:03;;;;;;;24.17;16.97;;;;;;;;;;5114141;28;20839;-72
2023/04/09 10:18:32;;;;;;;25.97;18.00;;;;;;;;;;5113934;28;20493;-73
2023/04/09 10:21:00;;;;;;;24.00;15.17;;;;;;;;;;5113974;28;20461;-73
2023/04/09 10:23:32;;;;;;;28.53;18.20;;;;;;;;;;5113136;28;20454;-72
2023/04/09 10:25:59;;;;;;;27.20;18.70;;;;;;;;;;5113569;28;20521;-73
2023/04/09 10:28:26;;;;;;;22.93;16.57;;;;;;;;;;5113383;28;20441;-73
2023/04/09 10:30:54;;;;;;;28.37;17.87;;;;;;;;;;5113913;28;20456;-73
2023/04/09 10:33:25;;;;;;;26.30;17.40;;;;;;;;;;5113297;28;20475;-73
2023/04/09 10:35:54;;;;;;;27.30;18.23;;;;;;;;;;5113834;28;20553;-73
2023/04/09 10:38:34;;;;;;;130.40;56.53;;;;;;;;;;5113728;28;20531;-73
2023/04/09 10:41:07;;;;;;;33.47;19.97;;;;;;;;;;5113867;27;20931;-73
2023/04/09 10:43:35;;;;;;;19.20;13.47;;;;;;;;;;5113657;28;20461;-73
2023/04/09 10:46:04;;;;;;;24.73;16.87;;;;;;;;;;5113918;28;20481;-73
2023/04/09 10:48:33;;;;;;;33.93;24.53;;;;;;;;;;5113883;28;20454;-73
2023/04/09 10:51:05;;;;;;;22.03;14.80;;;;;;;;;;5113543;28;20450;-73
2023/04/09 10:53:33;;;;;;;28.23;18.57;;;;;;;;;;5113494;28;20450;-73
2023/04/09 10:56:01;;;;;;;22.60;16.87;;;;;;;;;;5113677;28;20510;-73
2023/04/09 10:58:28;;;;;;;16.27;11.63;;;;;;;;;;5113386;28;20581;-73
2023/04/09 11:00:55;;;;;;;16.97;12.97;;;;;;;;;;5113416;28;20457;-73
2023/04/09 11:03:27;;;;;;;16.70;14.63;;;;;;;;;;5113325;28;20449;-73
2023/04/09 11:05:56;;;;;;;16.40;13.53;;;;;;;;;;5113587;28;20489;-73
2023/04/09 11:08:28;;;;;;;16.83;12.17;;;;;;;;;;5114880;28;20441;-77
2023/04/09 11:10:57;;;;;;;20.23;15.17;;;;;;;;;;5117816;28;20438;-77
2023/04/09 11:13:24;;;;;;;19.93;15.10;;;;;;;;;;5117833;28;20556;-77
2023/04/09 11:15:52;;;;;;;18.80;14.63;;;;;;;;;;5118252;28;20954;-75
2023/04/09 11:18:22;;;;;;;22.37;16.47;;;;;;;;;;5117845;28;20493;-75
2023/04/09 11:20:49;;;;;;;16.43;11.50;;;;;;;;;;5117718;28;20458;-74
2023/04/09 11:23:18;;;;;;;17.50;13.27;;;;;;;;;;5118006;28;20453;-74
2023/04/09 11:25:50;;;;;;;20.20;13.43;;;;;;;;;;5117628;28;20461;-75
2023/04/09 11:28:18;;;;;;;20.00;12.10;;;;;;;;;;5117671;28;20430;-75
2023/04/09 11:30:46;;;;;;;20.00;13.90;;;;;;;;;;5117524;28;20456;-75
2023/04/09 11:33:13;;;;;;;16.17;9.33;;;;;;;;;;5117714;28;20450;-74
2023/04/09 11:35:41;;;;;;;15.90;11.03;;;;;;;;;;5117482;28;20458;-72
2023/04/09 11:38:08;;;;;;;16.20;11.00;;;;;;;;;;5117034;27;20492;-72
2023/04/09 11:40:36;;;;;;;17.87;11.30;;;;;;;;;;5117169;28;20461;-72
2023/04/09 11:43:04;;;;;;;21.00;12.47;;;;;;;;;;5117032;28;20477;-72
2023/04/09 11:45:32;;;;;;;21.20;13.17;;;;;;;;;;5116899;28;20450;-72
2023/04/09 11:47:59;;;;;;;19.00;13.00;;;;;;;;;;5116870;28;20451;-72
2023/04/09 11:50:26;;;;;;;16.43;12.93;;;;;;;;;;5116556;28;20464;-72
2023/04/09 11:52:55;;;;;;;20.30;12.77;;;;;;;;;;5116809;27;20484;-72
2023/04/09 11:55:26;;;;;;;16.60;12.37;;;;;;;;;;5116163;28;20472;-72
2023/04/09 11:57:55;;;;;;;18.63;12.03;;;;;;;;;;5116633;28;20488;-72
2023/04/09 12:00:23;;;;;;;20.70;12.80;;;;;;;;;;5116626;28;20453;-73
2023/04/09 12:02:52;;;;;;;17.60;12.50;;;;;;;;;;5116863;28;20537;-75
2023/04/09 12:05:23;;;;;;;20.17;14.07;;;;;;;;;;5117412;28;20946;-75
2023/04/09 12:07:50;;;;;;;16.17;11.27;;;;;;;;;;5116743;28;20456;-73
2023/04/09 12:10:17;;;;;;;21.57;15.00;;;;;;;;;;5116661;28;20468;-75
2023/04/09 12:12:45;;;;;;;19.60;13.47;;;;;;;;;;5116399;28;20470;-75
2023/04/09 12:15:13;;;;;;;21.17;14.73;;;;;;;;;;5116174;27;20454;-75
2023/04/09 12:17:42;;;;;;;17.43;13.17;;;;;;;;;;5116254;28;20488;-75
2023/04/09 12:20:10;;;;;;;18.43;10.87;;;;;;;;;;5115343;28;20830;-75
2023/04/09 12:22:39;;;;;;;17.83;12.90;;;;;;;;;;5116492;27;21031;-74
2023/04/09 12:25:08;;;;;;;15.30;11.50;;;;;;;;;;5116463;28;20479;-74
2023/04/09 12:27:35;;;;;;;18.70;12.90;;;;;;;;;;5116431;28;20453;-75
2023/04/09 12:30:02;;;;;;;17.07;12.10;;;;;;;;;;5116569;28;20461;-76
2023/04/09 12:32:29;;;;;;;15.37;11.40;;;;;;;;;;5116070;28;20469;-75
2023/04/09 12:34:58;;;;;;;15.93;13.43;;;;;;;;;;5116530;28;20797;-73
2023/04/09 12:37:25;;;;;;;13.93;11.60;;;;;;;;;;5115934;28;20481;-73
2023/04/09 12:39:52;;;;;;;14.07;10.87;;;;;;;;;;5116025;28;20515;-74
2023/04/09 12:42:19;;;;;;;15.90;10.80;;;;;;;;;;5115898;27;20477;-74
2023/04/09 12:44:47;;;;;;;14.63;10.60;;;;;;;;;;5115901;28;20461;-73
2023/04/09 12:47:14;;;;;;;14.47;11.67;;;;;;;;;;5116190;28;20441;-73
2023/04/09 12:49:44;;;;;;;16.87;11.57;;;;;;;;;;5115971;27;20820;-73
2023/04/09 12:52:14;;;;;;;14.40;11.10;;;;;;;;;;5117128;28;20477;-73
2023/04/09 12:54:41;;;;;;;13.93;10.60;;;;;;;;;;5115686;28;20437;-73
2023/04/09 12:57:10;;;;;;;15.50;10.60;;;;;;;;;;5116157;28;20529;-75
2023/04/09 12:59:37;;;;;;;14.77;10.70;;;;;;;;;;5116244;28;20541;-76
2023/04/09 13:02:04;;;;;;;13.50;9.67;;;;;;;;;;5115922;28;20474;-75
2023/04/09 13:04:32;;;;;;;13.47;10.90;;;;;;;;;;5115888;28;20518;-77
2023/04/09 13:06:59;;;;;;;14.53;10.50;;;;;;;;;;5116140;28;20430;-76
2023/04/09 13:09:28;;;;;;;14.60;9.60;;;;;;;;;;5116015;28;20545;-76
2023/04/09 13:11:55;;;;;;;13.53;9.73;;;;;;;;;;5115923;28;20501;-75
2023/04/09 13:14:23;;;;;;;15.77;11.07;;;;;;;;;;5115965;28;20448;-77
2023/04/09 13:16:51;;;;;;;12.67;9.87;;;;;;;;;;5116180;28;20869;-76
2023/04/09 13:19:18;;;;;;;15.40;10.53;;;;;;;;;;5115355;28;20497;-73
2023/04/09 13:21:46;;;;;;;11.17;8.57;;;;;;;;;;5115665;28;20486;-76
2023/04/09 13:24:13;;;;;;;12.20;9.23;;;;;;;;;;5115070;28;20449;-76
2023/04/09 13:26:41;;;;;;;12.70;8.97;;;;;;;;;;5115190;28;20453;-76
2023/04/09 13:29:09;;;;;;;12.17;9.67;;;;;;;;;;5115031;28;20433;-76
2023/04/09 13:31:36;;;;;;;10.70;8.63;;;;;;;;;;5114921;28;20477;-76
2023/04/09 13:34:05;;;;;;;10.63;8.50;;;;;;;;;;5114682;28;20485;-76
2023/04/09 13:36:32;;;;;;;12.03;8.70;;;;;;;;;;5115041;28;20458;-76
2023/04/09 13:39:03;;;;;;;14.70;10.37;;;;;;;;;;5114872;28;20481;-77
2023/04/09 13:41:31;;;;;;;14.63;10.67;;;;;;;;;;5115045;28;20477;-76
2023/04/09 13:43:59;;;;;;;12.60;9.47;;;;;;;;;;5114818;28;20458;-76
2023/04/09 13:46:27;;;;;;;12.90;9.70;;;;;;;;;;5115455;28;20515;-76
2023/04/09 13:48:54;;;;;;;11.23;9.30;;;;;;;;;;5115716;28;20561;-78
2023/04/09 13:51:22;;;;;;;12.90;9.47;;;;;;;;;;5114960;28;20480;-76
2023/04/09 13:53:55;;;;;;;10.43;7.90;;;;;;;;;;5114955;28;20524;-78
2023/04/09 13:56:26;;;;;;;15.17;10.87;;;;;;;;;;5115030;28;20449;-77
2023/04/09 13:58:53;;;;;;;43.13;30.70;;;;;;;;;;5114671;28;20481;-76
2023/04/09 14:01:22;;;;;;;28.93;22.03;;;;;;;;;;5114731;28;20546;-77
2023/04/09 14:03:50;;;;;;;13.27;10.63;;;;;;;;;;5114539;28;20927;-77
2023/04/09 14:06:17;;;;;;;11.37;7.67;;;;;;;;;;5114462;28;20458;-77
2023/04/09 14:08:45;;;;;;;9.17;7.03;;;;;;;;;;5114662;28;20466;-74
2023/04/09 14:11:14;;;;;;;9.77;7.57;;;;;;;;;;5114312;28;20501;-76
2023/04/09 14:13:41;;;;;;;9.60;7.20;;;;;;;;;;5114251;28;20454;-75
2023/04/09 14:16:08;;;;;;;10.27;7.50;;;;;;;;;;5114073;28;20452;-75
2023/04/09 14:18:38;;;;;;;7.50;6.07;;;;;;;;;;5114106;27;20497;-75
2023/04/09 14:21:06;;;;;;;15.00;10.30;;;;;;;;;;5114106;28;20557;-75
2023/04/09 14:23:34;;;;;;;9.67;6.93;;;;;;;;;;5114007;28;20514;-75